PRIVATE WETTERSTATION BILLIGHEIM-ALLFELD                       ZURCK
Wetterdaten: Freitag, 20.01.2017
Datum Zeit Temp. A. Temp. A. min Temp. A. max Feuchte A. Luftdruck Regen Wind Richtung Richtung Sonnenschein ET Solar Taupunkt Windchill Windben Empfang
20.01.2017 00:00 -6,9 C -7,0 C -6,9 C 80 % 1034,9 hPa 0,0 l/m 0,0 km/h (0 Bft) NO 45 0 min 0,000 mm 0 W/m -9,8 C -6,9 C 4,8 km/h (1 Bft) 97 %
20.01.2017 00:10 -6,8 C -6,9 C -6,8 C 80 % 1034,8 hPa 0,0 l/m 0,0 km/h (0 Bft) NO 45 0 min 0,000 mm 0 W/m -9,7 C -6,8 C 3,2 km/h (1 Bft) 97 %
20.01.2017 00:20 -6,8 C -6,8 C -6,8 C 79 % 1034,8 hPa 0,0 l/m 0,0 km/h (0 Bft) NO 45 0 min 0,000 mm 0 W/m -9,8 C -6,8 C 3,2 km/h (1 Bft) 89 %
20.01.2017 00:30 -6,8 C -6,8 C -6,8 C 79 % 1034,6 hPa 0,0 l/m 1,6 km/h (1 Bft) NO 45 0 min 0,000 mm 0 W/m -9,8 C -6,8 C 4,8 km/h (1 Bft) 97 %
20.01.2017 00:40 -6,7 C -6,8 C -6,7 C 78 % 1034,6 hPa 0,0 l/m 3,2 km/h (1 Bft) NO 45 0 min 0,000 mm 0 W/m -9,9 C -6,7 C 6,4 km/h (2 Bft) 98 %
20.01.2017 00:50 -6,7 C -6,8 C -6,6 C 78 % 1034,5 hPa 0,0 l/m 1,6 km/h (1 Bft) NO 45 0 min 0,000 mm 0 W/m -9,9 C -6,7 C 4,8 km/h (1 Bft) 97 %
20.01.2017 01:00 -6,7 C -6,7 C -6,6 C 77 % 1034,5 hPa 0,0 l/m 1,6 km/h (1 Bft) NO 45 0 min 0,000 mm 0 W/m -10,0 C -6,7 C 4,8 km/h (1 Bft) 99 %
20.01.2017 01:10 -6,7 C -6,7 C -6,7 C 77 % 1034,5 hPa 0,0 l/m 0,0 km/h (0 Bft) NO 45 0 min 0,000 mm 0 W/m -10,0 C -6,7 C 3,2 km/h (1 Bft) 100 %
20.01.2017 01:20 -6,6 C -6,7 C -6,6 C 76 % 1034,5 hPa 0,0 l/m 0,0 km/h (0 Bft) NO 45 0 min 0,000 mm 0 W/m -10,1 C -6,6 C 1,6 km/h (1 Bft) 100 %
20.01.2017 01:30 -6,8 C -6,8 C -6,6 C 76 % 1034,5 hPa 0,0 l/m 0,0 km/h (0 Bft) N 0 0 min 0,000 mm 0 W/m -10,3 C -6,8 C 0,0 km/h (0 Bft) 100 %
20.01.2017 01:40 -6,8 C -6,8 C -6,8 C 76 % 1034,5 hPa 0,0 l/m 0,0 km/h (0 Bft) N 0 0 min 0,000 mm 0 W/m -10,3 C -6,8 C 0,0 km/h (0 Bft) 100 %
20.01.2017 01:50 -6,8 C -6,8 C -6,8 C 76 % 1034,4 hPa 0,0 l/m 0,0 km/h (0 Bft) N 0 0 min 0,000 mm 0 W/m -10,3 C -6,8 C 0,0 km/h (0 Bft) 100 %
20.01.2017 02:00 -7,0 C -7,0 C -6,8 C 77 % 1034,4 hPa 0,0 l/m 0,0 km/h (0 Bft) N 0 0 min 0,000 mm 0 W/m -10,3 C -7,0 C 0,0 km/h (0 Bft) 100 %
20.01.2017 02:10 -7,2 C -7,2 C -7,0 C 77 % 1034,3 hPa 0,0 l/m 0,0 km/h (0 Bft) N 0 0 min 0,000 mm 0 W/m -10,5 C -7,2 C 0,0 km/h (0 Bft) 100 %
20.01.2017 02:20 -7,3 C -7,4 C -7,2 C 76 % 1034,4 hPa 0,0 l/m 0,0 km/h (0 Bft) NO 45 0 min 0,000 mm 0 W/m -10,8 C -7,3 C 3,2 km/h (1 Bft) 99 %
20.01.2017 02:30 -7,3 C -7,4 C -7,3 C 76 % 1034,3 hPa 0,0 l/m 0,0 km/h (0 Bft) N 0 0 min 0,000 mm 0 W/m -10,8 C -7,3 C 0,0 km/h (0 Bft) 100 %
20.01.2017 02:40 -7,3 C -7,3 C -7,3 C 76 % 1034,2 hPa 0,0 l/m 0,0 km/h (0 Bft) N 0 0 min 0,000 mm 0 W/m -10,8 C -7,3 C 0,0 km/h (0 Bft) 100 %
20.01.2017 02:50 -7,4 C -7,4 C -7,3 C 76 % 1034,2 hPa 0,0 l/m 0,0 km/h (0 Bft) NO 45 0 min 0,000 mm 0 W/m -10,9 C -7,4 C 1,6 km/h (1 Bft) 100 %
20.01.2017 03:00 -7,7 C -7,7 C -7,4 C 76 % 1034,3 hPa 0,0 l/m 0,0 km/h (0 Bft) NO 45 0 min 0,000 mm 0 W/m -11,2 C -7,7 C 4,8 km/h (1 Bft) 91 %
20.01.2017 03:10 -7,8 C -7,8 C -7,7 C 76 % 1034,2 hPa 0,0 l/m 0,0 km/h (0 Bft) N 0 0 min 0,000 mm 0 W/m -11,3 C -7,8 C 0,0 km/h (0 Bft) 100 %
20.01.2017 03:20 -7,9 C -7,9 C -7,8 C 77 % 1034,2 hPa 0,0 l/m 0,0 km/h (0 Bft) NO 45 0 min 0,000 mm 0 W/m -11,2 C -7,9 C 1,6 km/h (1 Bft) 100 %
20.01.2017 03:30 -8,0 C -8,0 C -7,9 C 78 % 1034,1 hPa 0,0 l/m 0,0 km/h (0 Bft) N 0 0 min 0,000 mm 0 W/m -11,1 C -8,0 C 0,0 km/h (0 Bft) 100 %
20.01.2017 03:40 -8,0 C -8,1 C -8,0 C 77 % 1034,1 hPa 0,0 l/m 0,0 km/h (0 Bft) NO 45 0 min 0,000 mm 0 W/m -11,3 C -8,0 C 1,6 km/h (1 Bft) 100 %
20.01.2017 03:50 -8,0 C -8,1 C -8,0 C 77 % 1034,1 hPa 0,0 l/m 0,0 km/h (0 Bft) N 0 0 min 0,000 mm 0 W/m -11,3 C -8,0 C 0,0 km/h (0 Bft) 100 %
20.01.2017 04:00 -8,1 C -8,1 C -8,0 C 77 % 1034,1 hPa 0,0 l/m 0,0 km/h (0 Bft) N 0 0 min 0,000 mm 0 W/m -11,4 C -8,1 C 0,0 km/h (0 Bft) 100 %
20.01.2017 04:10 -8,2 C -8,2 C -8,1 C 77 % 1034,1 hPa 0,0 l/m 0,0 km/h (0 Bft) N 0 0 min 0,000 mm 0 W/m -11,5 C -8,2 C 0,0 km/h (0 Bft) 100 %
20.01.2017 04:20 -8,4 C -8,4 C -8,2 C 77 % 1034,0 hPa 0,0 l/m 0,0 km/h (0 Bft) N 0 0 min 0,000 mm 0 W/m -11,7 C -8,4 C 0,0 km/h (0 Bft) 100 %
20.01.2017 04:30 -8,6 C -8,6 C -8,4 C 77 % 1034,0 hPa 0,0 l/m 0,0 km/h (0 Bft) NO 45 0 min 0,000 mm 0 W/m -11,9 C -8,6 C 3,2 km/h (1 Bft) 100 %
20.01.2017 04:40 -8,8 C -8,8 C -8,6 C 78 % 1034,0 hPa 0,0 l/m 0,0 km/h (0 Bft) N 0 0 min 0,000 mm 0 W/m -11,9 C -8,8 C 0,0 km/h (0 Bft) 100 %
20.01.2017 04:50 -8,7 C -8,9 C -8,7 C 79 % 1034,3 hPa 0,0 l/m 0,0 km/h (0 Bft) N 0 0 min 0,000 mm 0 W/m -11,7 C -8,7 C 0,0 km/h (0 Bft) 100 %
20.01.2017 05:00 -8,5 C -8,7 C -8,5 C 79 % 1034,2 hPa 0,0 l/m 0,0 km/h (0 Bft) N 0 0 min 0,000 mm 0 W/m -11,5 C -8,5 C 0,0 km/h (0 Bft) 100 %
20.01.2017 05:10 -8,4 C -8,5 C -8,4 C 78 % 1034,2 hPa 0,0 l/m 0,0 km/h (0 Bft) N 0 0 min 0,000 mm 0 W/m -11,5 C -8,4 C 0,0 km/h (0 Bft) 100 %
20.01.2017 05:20 -8,5 C -8,5 C -8,4 C 77 % 1034,1 hPa 0,0 l/m 0,0 km/h (0 Bft) N 0 0 min 0,000 mm 0 W/m -11,8 C -8,5 C 0,0 km/h (0 Bft) 90 %
20.01.2017 05:30 -8,5 C -8,5 C -8,5 C 78 % 1034,2 hPa 0,0 l/m 0,0 km/h (0 Bft) N 0 0 min 0,000 mm 0 W/m -11,6 C -8,5 C 0,0 km/h (0 Bft) 100 %
20.01.2017 05:40 -8,7 C -8,7 C -8,5 C 78 % 1034,0 hPa 0,0 l/m 0,0 km/h (0 Bft) N 0 0 min 0,000 mm 0 W/m -11,8 C -8,7 C 0,0 km/h (0 Bft) 100 %
20.01.2017 05:50 -8,8 C -8,8 C -8,7 C 79 % 1034,0 hPa 0,0 l/m 0,0 km/h (0 Bft) N 0 0 min 0,000 mm 0 W/m -11,8 C -8,8 C 0,0 km/h (0 Bft) 100 %
20.01.2017 06:00 -8,9 C -8,9 C -8,8 C 78 % 1034,1 hPa 0,0 l/m 0,0 km/h (0 Bft) N 0 0 min 0,000 mm 0 W/m -12,0 C -8,9 C 0,0 km/h (0 Bft) 100 %
20.01.2017 06:10 -8,9 C -8,9 C -8,9 C 79 % 1034,1 hPa 0,0 l/m 0,0 km/h (0 Bft) NO 45 0 min 0,000 mm 0 W/m -11,9 C -8,9 C 1,6 km/h (1 Bft) 90 %
20.01.2017 06:20 -9,0 C -9,0 C -8,9 C 79 % 1034,0 hPa 0,0 l/m 0,0 km/h (0 Bft) N 0 0 min 0,000 mm 0 W/m -12,0 C -9,0 C 0,0 km/h (0 Bft) 100 %
20.01.2017 06:30 -9,1 C -9,1 C -9,0 C 79 % 1034,1 hPa 0,0 l/m 0,0 km/h (0 Bft) N 0 0 min 0,000 mm 0 W/m -12,1 C -9,1 C 0,0 km/h (0 Bft) 100 %
20.01.2017 06:40 -9,1 C -9,1 C -9,1 C 79 % 1034,1 hPa 0,0 l/m 0,0 km/h (0 Bft) N 0 0 min 0,000 mm 0 W/m -12,1 C -9,1 C 0,0 km/h (0 Bft) 100 %
20.01.2017 06:50 -8,9 C -9,1 C -8,9 C 79 % 1034,1 hPa 0,0 l/m 0,0 km/h (0 Bft) NO 45 0 min 0,000 mm 0 W/m -11,9 C -8,9 C 1,6 km/h (1 Bft) 100 %
20.01.2017 07:00 -8,7 C -8,9 C -8,7 C 78 % 1034,2 hPa 0,0 l/m 1,6 km/h (1 Bft) NO 45 0 min 0,000 mm 0 W/m -11,8 C -8,7 C 6,4 km/h (2 Bft) 100 %
20.01.2017 07:10 -8,3 C -8,7 C -8,3 C 77 % 1034,1 hPa 0,0 l/m 4,8 km/h (1 Bft) NO 45 0 min 0,000 mm 0 W/m -11,6 C -8,3 C 6,4 km/h (2 Bft) 100 %
20.01.2017 07:20 -8,0 C -8,3 C -8,0 C 75 % 1034,2 hPa 0,0 l/m 3,2 km/h (1 Bft) NO 45 0 min 0,000 mm 0 W/m -11,6 C -8,0 C 6,4 km/h (2 Bft) 100 %
20.01.2017 07:30 -7,9 C -8,0 C -7,9 C 75 % 1034,2 hPa 0,0 l/m 1,6 km/h (1 Bft) NO 45 0 min 0,000 mm 0 W/m -11,5 C -7,9 C 4,8 km/h (1 Bft) 100 %
20.01.2017 07:40 -7,9 C -7,9 C -7,9 C 75 % 1034,3 hPa 0,0 l/m 0,0 km/h (0 Bft) N 0 0 min 0,000 mm 0 W/m -11,5 C -7,9 C 0,0 km/h (0 Bft) 100 %
20.01.2017 07:50 -8,0 C -8,0 C -7,9 C 74 % 1034,3 hPa 0,0 l/m 0,0 km/h (0 Bft) N 0 0 min 0,000 mm 0 W/m -11,8 C -8,0 C 0,0 km/h (0 Bft) 100 %
20.01.2017 08:00 -8,2 C -8,2 C -7,9 C 74 % 1034,3 hPa 0,0 l/m 1,6 km/h (1 Bft) NO 45 0 min 0,000 mm 0 W/m -12,0 C -8,2 C 3,2 km/h (1 Bft) 100 %
20.01.2017 08:10 -8,2 C -8,3 C -8,2 C 74 % 1034,2 hPa 0,0 l/m 0,0 km/h (0 Bft) NO 45 0 min 0,000 mm 5 W/m -12,0 C -8,2 C 3,2 km/h (1 Bft) 100 %
20.01.2017 08:20 -8,4 C -8,4 C -8,2 C 74 % 1034,4 hPa 0,0 l/m 1,6 km/h (1 Bft) NO 45 0 min 0,000 mm 7 W/m -12,2 C -8,4 C 3,2 km/h (1 Bft) 100 %
20.01.2017 08:30 -8,4 C -8,4 C -8,4 C 74 % 1034,5 hPa 0,0 l/m 0,0 km/h (0 Bft) N 0 0 min 0,000 mm 11 W/m -12,2 C -8,4 C 0,0 km/h (0 Bft) 100 %
20.01.2017 08:40 -8,3 C -8,4 C -8,3 C 74 % 1034,5 hPa 0,0 l/m 0,0 km/h (0 Bft) N 0 0 min 0,000 mm 12 W/m -12,1 C -8,3 C 0,0 km/h (0 Bft) 100 %
20.01.2017 08:50 -8,3 C -8,3 C -8,3 C 74 % 1034,6 hPa 0,0 l/m 0,0 km/h (0 Bft) N 0 0 min 0,000 mm 18 W/m -12,1 C -8,3 C 0,0 km/h (0 Bft) 100 %
20.01.2017 09:00 -8,4 C -8,4 C -8,3 C 74 % 1034,6 hPa 0,0 l/m 0,0 km/h (0 Bft) N 0 0 min 0,000 mm 26 W/m -12,2 C -8,4 C 0,0 km/h (0 Bft) 100 %
20.01.2017 09:10 -8,2 C -8,4 C -8,2 C 74 % 1034,6 hPa 0,0 l/m 0,0 km/h (0 Bft) N 0 0 min 0,000 mm 63 W/m -12,0 C -8,2 C 0,0 km/h (0 Bft) 100 %
20.01.2017 09:20 -7,7 C -8,2 C -7,7 C 73 % 1034,7 hPa 0,0 l/m 0,0 km/h (0 Bft) N 0 0 min 0,000 mm 123 W/m -11,7 C -7,7 C 0,0 km/h (0 Bft) 100 %
20.01.2017 09:30 -6,8 C -7,7 C -6,8 C 70 % 1034,8 hPa 0,0 l/m 0,0 km/h (0 Bft) N 0 0 min 0,000 mm 149 W/m -11,3 C -6,8 C 0,0 km/h (0 Bft) 100 %
20.01.2017 09:40 -6,3 C -6,8 C -6,3 C 69 % 1034,8 hPa 0,0 l/m 0,0 km/h (0 Bft) N 0 10 min 0,000 mm 174 W/m -11,0 C -6,3 C 0,0 km/h (0 Bft) 100 %
20.01.2017 09:50 -5,5 C -6,3 C -5,5 C 66 % 1034,7 hPa 0,0 l/m 0,0 km/h (0 Bft) NO 45 10 min 0,000 mm 195 W/m -10,8 C -5,5 C 6,4 km/h (2 Bft) 100 %
20.01.2017 10:00 -4,6 C -5,5 C -4,6 C 63 % 1034,7 hPa 0,0 l/m 0,0 km/h (0 Bft) N-NO 22 10 min 0,025 mm 216 W/m -10,5 C -4,6 C 8,0 km/h (2 Bft) 100 %
20.01.2017 10:10 -3,9 C -4,6 C -3,9 C 61 % 1034,6 hPa 0,0 l/m 1,6 km/h (1 Bft) NO 45 10 min 0,000 mm 234 W/m -10,3 C -3,9 C 8,0 km/h (2 Bft) 100 %
20.01.2017 10:20 -3,3 C -3,9 C -3,3 C 58 % 1034,6 hPa 0,0 l/m 1,6 km/h (1 Bft) O-NO 67 10 min 0,000 mm 250 W/m -10,4 C -3,3 C 11,3 km/h (2 Bft) 100 %
20.01.2017 10:40 -2,8 C -3,9 C -2,8 C 57 % 1034,4 hPa 0,0 l/m 1,5 km/h (1 Bft) N-NO 33 20 min 0,000 mm 283 W/m -10,1 C -2,8 C 14,5 km/h (3 Bft) 97 %
20.01.2017 10:50 -2,8 C -2,8 C -2,8 C 56 % 1034,5 hPa 0,0 l/m 1,6 km/h (1 Bft) NO 38 10 min 0,000 mm 299 W/m -10,3 C -2,8 C 9,7 km/h (2 Bft) 97 %
20.01.2017 11:00 -2,3 C -2,8 C -2,3 C 55 % 1034,5 hPa 0,0 l/m 0,2 km/h (0 Bft) NO 42 10 min 0,077 mm 309 W/m -10,1 C -2,3 C 4,8 km/h (1 Bft) 97 %
20.01.2017 11:10 -1,8 C -2,3 C -1,8 C 54 % 1034,5 hPa 0,0 l/m 0,3 km/h (0 Bft) O-SO 103 10 min 0,000 mm 323 W/m -9,9 C -1,8 C 6,4 km/h (2 Bft) 98 %
20.01.2017 11:20 -1,7 C -1,8 C -1,7 C 54 % 1034,5 hPa 0,0 l/m 0,1 km/h (0 Bft) O-NO 60 10 min 0,000 mm 336 W/m -9,8 C -1,7 C 6,4 km/h (2 Bft) 98 %
20.01.2017 11:30 -1,7 C -1,7 C -1,7 C 54 % 1034,4 hPa 0,0 l/m 0,7 km/h (0 Bft) NO 55 10 min 0,000 mm 345 W/m -9,8 C -1,7 C 4,8 km/h (1 Bft) 100 %
20.01.2017 11:40 -2,0 C -2,0 C -1,7 C 55 % 1034,2 hPa 0,0 l/m 0,6 km/h (0 Bft) NO 54 10 min 0,000 mm 352 W/m -9,8 C -2,0 C 4,8 km/h (1 Bft) 99 %
20.01.2017 11:50 -1,9 C -2,1 C -1,9 C 56 % 1034,0 hPa 0,0 l/m 0,1 km/h (0 Bft) NO 54 10 min 0,000 mm 290 W/m -9,5 C -1,9 C 3,2 km/h (1 Bft) 100 %
20.01.2017 12:00 -1,6 C -1,9 C -1,6 C 54 % 1033,9 hPa 0,0 l/m 0,3 km/h (0 Bft) NO 47 10 min 0,101 mm 364 W/m -9,7 C -1,6 C 6,4 km/h (2 Bft) 100 %
20.01.2017 12:10 -1,7 C -1,7 C -1,6 C 54 % 1033,9 hPa 0,0 l/m 0,0 km/h (0 Bft) NO 47 10 min 0,000 mm 367 W/m -9,8 C -1,7 C 1,6 km/h (1 Bft) 100 %
20.01.2017 12:20 -1,7 C -1,7 C -1,7 C 55 % 1033,8 hPa 0,0 l/m 1,1 km/h (1 Bft) NO 46 10 min 0,000 mm 369 W/m -9,5 C -1,7 C 6,4 km/h (2 Bft) 100 %
20.01.2017 12:30 -1,7 C -1,7 C -1,7 C 54 % 1033,8 hPa 0,0 l/m 1,1 km/h (1 Bft) NO 46 10 min 0,000 mm 369 W/m -9,8 C -1,7 C 4,8 km/h (1 Bft) 100 %
20.01.2017 12:40 -1,7 C -1,7 C -1,7 C 55 % 1033,7 hPa 0,0 l/m 0,6 km/h (0 Bft) NO 44 10 min 0,000 mm 369 W/m -9,5 C -1,7 C 4,8 km/h (1 Bft) 100 %
20.01.2017 12:50 -1,7 C -1,7 C -1,7 C 55 % 1033,6 hPa 0,0 l/m 0,5 km/h (0 Bft) NO 44 10 min 0,000 mm 193 W/m -9,5 C -1,7 C 4,8 km/h (1 Bft) 100 %
20.01.2017 13:00 -1,7 C -1,7 C -1,7 C 54 % 1033,4 hPa 0,0 l/m 0,5 km/h (0 Bft) NO 44 10 min 0,102 mm 364 W/m -9,8 C -1,7 C 4,8 km/h (1 Bft) 100 %
20.01.2017 13:10 -1,6 C -1,7 C -1,6 C 53 % 1033,4 hPa 0,0 l/m 0,9 km/h (0 Bft) NO 44 10 min 0,000 mm 174 W/m -9,9 C -1,6 C 4,8 km/h (1 Bft) 100 %
20.01.2017 13:20 -1,2 C -1,6 C -1,2 C 52 % 1033,2 hPa 0,0 l/m 1,7 km/h (1 Bft) NO 39 10 min 0,000 mm 283 W/m -9,8 C -1,2 C 8,0 km/h (2 Bft) 100 %
20.01.2017 13:30 -1,0 C -1,2 C -1,0 C 51 % 1033,2 hPa 0,0 l/m 1,2 km/h (1 Bft) NO 38 10 min 0,000 mm 330 W/m -9,8 C -1,0 C 8,0 km/h (2 Bft) 100 %
20.01.2017 13:40 -0,9 C -1,0 C -0,9 C 51 % 1033,1 hPa 0,0 l/m 0,2 km/h (0 Bft) NO 38 10 min 0,000 mm 260 W/m -9,7 C -0,9 C 4,8 km/h (1 Bft) 100 %
20.01.2017 13:50 -0,9 C -0,9 C -0,9 C 52 % 1033,0 hPa 0,0 l/m 1,0 km/h (0 Bft) NO 54 10 min 0,000 mm 306 W/m -9,5 C -0,9 C 6,4 km/h (2 Bft) 100 %
20.01.2017 14:00 -0,9 C -0,9 C -0,8 C 53 % 1033,0 hPa 0,0 l/m 0,1 km/h (0 Bft) NO 49 10 min 0,076 mm 292 W/m -9,2 C -0,9 C 3,2 km/h (1 Bft) 100 %
20.01.2017 14:10 -0,9 C -0,9 C -0,9 C 53 % 1032,9 hPa 0,0 l/m 1,0 km/h (0 Bft) NO 40 10 min 0,000 mm 297 W/m -9,2 C -0,9 C 6,4 km/h (2 Bft) 100 %
20.01.2017 14:20 -1,1 C -1,1 C -0,9 C 55 % 1032,7 hPa 0,0 l/m 1,5 km/h (1 Bft) NO 36 10 min 0,000 mm 230 W/m -9,0 C -1,1 C 4,8 km/h (1 Bft) 100 %
20.01.2017 14:30 -1,2 C -1,2 C -1,1 C 56 % 1032,8 hPa 0,0 l/m 1,6 km/h (1 Bft) NO 36 10 min 0,000 mm 229 W/m -8,8 C -1,2 C 8,0 km/h (2 Bft) 100 %
20.01.2017 14:40 -1,3 C -1,3 C -1,2 C 55 % 1032,6 hPa 0,0 l/m 1,2 km/h (1 Bft) NO 39 10 min 0,000 mm 250 W/m -9,2 C -1,3 C 6,4 km/h (2 Bft) 100 %
20.01.2017 14:50 -1,4 C -1,4 C -1,3 C 55 % 1032,6 hPa 0,0 l/m 1,7 km/h (1 Bft) NO 39 10 min 0,000 mm 239 W/m -9,2 C -1,4 C 6,4 km/h (2 Bft) 100 %
20.01.2017 15:00 -1,4 C -1,4 C -1,4 C 55 % 1032,6 hPa 0,0 l/m 2,7 km/h (1 Bft) NO 38 0 min 0,076 mm 149 W/m -9,2 C -1,4 C 8,0 km/h (2 Bft) 100 %
20.01.2017 15:10 -1,4 C -1,4 C -1,4 C 55 % 1032,6 hPa 0,0 l/m 1,8 km/h (1 Bft) NO 36 0 min 0,000 mm 37 W/m -9,2 C -1,4 C 6,4 km/h (2 Bft) 100 %
20.01.2017 15:20 -1,6 C -1,6 C -1,4 C 55 % 1032,6 hPa 0,0 l/m 1,8 km/h (1 Bft) NO 39 0 min 0,000 mm 33 W/m -9,4 C -1,6 C 8,0 km/h (2 Bft) 100 %
20.01.2017 15:30 -1,7 C -1,7 C -1,6 C 56 % 1032,6 hPa 0,0 l/m 1,1 km/h (1 Bft) NO 38 0 min 0,000 mm 30 W/m -9,3 C -1,7 C 6,4 km/h (2 Bft) 91 %
20.01.2017 15:40 -1,7 C -1,7 C -1,7 C 56 % 1032,6 hPa 0,0 l/m 1,0 km/h (0 Bft) NO 38 0 min 0,000 mm 30 W/m -9,3 C -1,7 C 6,4 km/h (2 Bft) 100 %
20.01.2017 15:50 -1,8 C -1,8 C -1,7 C 56 % 1032,5 hPa 0,0 l/m 1,8 km/h (1 Bft) NO 38 0 min 0,000 mm 26 W/m -9,4 C -1,8 C 6,4 km/h (2 Bft) 100 %
20.01.2017 16:00 -1,9 C -1,9 C -1,8 C 56 % 1032,5 hPa 0,0 l/m 0,7 km/h (0 Bft) NO 37 0 min 0,026 mm 25 W/m -9,5 C -1,9 C 6,4 km/h (2 Bft) 100 %
20.01.2017 16:10 -2,1 C -2,1 C -1,9 C 57 % 1032,4 hPa 0,0 l/m 1,2 km/h (1 Bft) NO 37 0 min 0,000 mm 23 W/m -9,4 C -2,1 C 4,8 km/h (1 Bft) 98 %
20.01.2017 16:20 -2,1 C -2,2 C -2,1 C 56 % 1032,4 hPa 0,0 l/m 2,1 km/h (1 Bft) NO 37 0 min 0,000 mm 19 W/m -9,7 C -2,1 C 4,8 km/h (1 Bft) 99 %
20.01.2017 16:30 -2,2 C -2,2 C -2,1 C 57 % 1032,4 hPa 0,0 l/m 1,7 km/h (1 Bft) NO 37 0 min 0,000 mm 16 W/m -9,5 C -2,2 C 4,8 km/h (1 Bft) 100 %
20.01.2017 16:40 -2,3 C -2,3 C -2,2 C 56 % 1032,5 hPa 0,0 l/m 0,6 km/h (0 Bft) NO 37 0 min 0,000 mm 12 W/m -9,9 C -2,3 C 4,8 km/h (1 Bft) 100 %
20.01.2017 16:50 -2,4 C -2,4 C -2,3 C 57 % 1032,5 hPa 0,0 l/m 1,4 km/h (1 Bft) NO 37 0 min 0,000 mm 7 W/m -9,7 C -2,4 C 4,8 km/h (1 Bft) 100 %
20.01.2017 17:00 -2,6 C -2,6 C -2,4 C 56 % 1032,5 hPa 0,0 l/m 0,1 km/h (0 Bft) NO 37 0 min 0,000 mm 0 W/m -10,1 C -2,6 C 3,2 km/h (1 Bft) 100 %
20.01.2017 17:10 -2,7 C -2,7 C -2,6 C 56 % 1032,5 hPa 0,0 l/m 0,2 km/h (0 Bft) NO 37 0 min 0,000 mm 0 W/m -10,2 C -2,7 C 3,2 km/h (1 Bft) 100 %
20.01.2017 17:20 -2,9 C -2,9 C -2,7 C 56 % 1032,5 hPa 0,0 l/m 0,0 km/h (0 Bft) NO 37 0 min 0,000 mm 0 W/m -10,4 C -2,9 C 0,0 km/h (0 Bft) 100 %
20.01.2017 17:30 -3,0 C -3,0 C -2,8 C 57 % 1032,4 hPa 0,0 l/m 0,0 km/h (0 Bft) NO 37 0 min 0,000 mm 0 W/m -10,3 C -3,0 C 0,0 km/h (0 Bft) 100 %
20.01.2017 17:40 -3,3 C -3,3 C -3,0 C 57 % 1032,4 hPa 0,0 l/m 0,0 km/h (0 Bft) NO 37 0 min 0,000 mm 0 W/m -10,6 C -3,3 C 0,0 km/h (0 Bft) 100 %
20.01.2017 17:50 -3,6 C -3,6 C -3,3 C 58 % 1032,3 hPa 0,0 l/m 0,0 km/h (0 Bft) NO 37 0 min 0,000 mm 0 W/m -10,6 C -3,6 C 0,0 km/h (0 Bft) 100 %
20.01.2017 18:00 -3,9 C -3,9 C -3,6 C 59 % 1032,3 hPa 0,0 l/m 0,0 km/h (0 Bft) NO 37 0 min 0,000 mm 0 W/m -10,7 C -3,9 C 0,0 km/h (0 Bft) 100 %
20.01.2017 18:10 -4,2 C -4,2 C -3,9 C 60 % 1032,2 hPa 0,0 l/m 0,0 km/h (0 Bft) NO 37 0 min 0,000 mm 0 W/m -10,8 C -4,2 C 0,0 km/h (0 Bft) 100 %
20.01.2017 18:20 -4,4 C -4,4 C -4,2 C 60 % 1032,1 hPa 0,0 l/m 0,0 km/h (0 Bft) NO 37 0 min 0,000 mm 0 W/m -11,0 C -4,4 C 0,0 km/h (0 Bft) 100 %
20.01.2017 18:30 -4,7 C -4,7 C -4,4 C 61 % 1032,2 hPa 0,0 l/m 0,0 km/h (0 Bft) NO 37 0 min 0,000 mm 0 W/m -11,0 C -4,7 C 0,0 km/h (0 Bft) 100 %
20.01.2017 18:40 -4,9 C -4,9 C -4,7 C 63 % 1032,2 hPa 0,0 l/m 0,0 km/h (0 Bft) NO 37 0 min 0,000 mm 0 W/m -10,8 C -4,9 C 0,0 km/h (0 Bft) 100 %
20.01.2017 18:50 -4,9 C -4,9 C -4,9 C 63 % 1032,2 hPa 0,0 l/m 0,0 km/h (0 Bft) NO 37 0 min 0,000 mm 0 W/m -10,8 C -4,9 C 0,0 km/h (0 Bft) 100 %
20.01.2017 19:00 -4,9 C -4,9 C -4,9 C 63 % 1032,2 hPa 0,0 l/m 0,0 km/h (0 Bft) NO 37 0 min 0,025 mm 0 W/m -10,8 C -4,9 C 0,0 km/h (0 Bft) 99 %
20.01.2017 19:10 -4,7 C -4,9 C -4,7 C 63 % 1032,2 hPa 0,0 l/m 0,0 km/h (0 Bft) NO 37 0 min 0,000 mm 0 W/m -10,6 C -4,7 C 0,0 km/h (0 Bft) 100 %
20.01.2017 19:20 -4,7 C -4,7 C -4,7 C 63 % 1032,1 hPa 0,0 l/m 0,0 km/h (0 Bft) NO 37 0 min 0,000 mm 0 W/m -10,6 C -4,7 C 0,0 km/h (0 Bft) 100 %
20.01.2017 19:30 -5,0 C -5,0 C -4,7 C 64 % 1032,2 hPa 0,0 l/m 0,0 km/h (0 Bft) NO 36 0 min 0,000 mm 0 W/m -10,7 C -5,0 C 1,6 km/h (1 Bft) 100 %
20.01.2017 19:40 -5,2 C -5,2 C -5,0 C 65 % 1032,1 hPa 0,0 l/m 0,0 km/h (0 Bft) NO 36 0 min 0,000 mm 0 W/m -10,7 C -5,2 C 0,0 km/h (0 Bft) 100 %
20.01.2017 19:50 -5,1 C -5,2 C -5,1 C 65 % 1032,2 hPa 0,0 l/m 0,0 km/h (0 Bft) NO 36 0 min 0,000 mm 0 W/m -10,6 C -5,1 C 0,0 km/h (0 Bft) 91 %
20.01.2017 20:00 -5,1 C -5,1 C -5,1 C 65 % 1032,1 hPa 0,0 l/m 0,0 km/h (0 Bft) NO 36 0 min 0,025 mm 0 W/m -10,6 C -5,1 C 0,0 km/h (0 Bft) 100 %
20.01.2017 20:10 -5,2 C -5,2 C -5,1 C 65 % 1032,2 hPa 0,0 l/m 0,0 km/h (0 Bft) NO 36 0 min 0,000 mm 0 W/m -10,7 C -5,2 C 0,0 km/h (0 Bft) 100 %
20.01.2017 20:20 -5,4 C -5,4 C -5,2 C 66 % 1032,2 hPa 0,0 l/m 0,4 km/h (0 Bft) NO 39 0 min 0,000 mm 0 W/m -10,7 C -5,4 C 6,4 km/h (2 Bft) 100 %
20.01.2017 20:30 -5,6 C -5,6 C -5,4 C 67 % 1032,2 hPa 0,0 l/m 0,0 km/h (0 Bft) NO 39 0 min 0,000 mm 0 W/m -10,7 C -5,6 C 0,0 km/h (0 Bft) 100 %
20.01.2017 20:40 -5,9 C -5,9 C -5,6 C 68 % 1032,2 hPa 0,0 l/m 0,0 km/h (0 Bft) NO 39 0 min 0,000 mm 0 W/m -10,8 C -5,9 C 0,0 km/h (0 Bft) 100 %
20.01.2017 20:50 -6,2 C -6,2 C -5,9 C 71 % 1032,2 hPa 0,0 l/m 0,0 km/h (0 Bft) NO 39 0 min 0,000 mm 0 W/m -10,6 C -6,2 C 0,0 km/h (0 Bft) 100 %
20.01.2017 21:00 -6,6 C -6,6 C -6,2 C 73 % 1032,2 hPa 0,0 l/m 0,0 km/h (0 Bft) NO 39 0 min 0,000 mm 0 W/m -10,6 C -6,6 C 0,0 km/h (0 Bft) 100 %
20.01.2017 21:10 -6,5 C -6,6 C -6,5 C 74 % 1032,2 hPa 0,0 l/m 0,0 km/h (0 Bft) N 0 0 min 0,000 mm 0 W/m -10,3 C -6,5 C 0,0 km/h (0 Bft) 100 %
20.01.2017 21:20 -6,4 C -6,6 C -6,4 C 74 % 1032,2 hPa 0,0 l/m 0,0 km/h (0 Bft) N 0 0 min 0,000 mm 0 W/m -10,2 C -6,4 C 0,0 km/h (0 Bft) 100 %
20.01.2017 21:30 -6,2 C -6,4 C -6,2 C 72 % 1032,3 hPa 0,0 l/m 0,0 km/h (0 Bft) N 0 0 min 0,000 mm 0 W/m -10,4 C -6,2 C 0,0 km/h (0 Bft) 100 %
20.01.2017 21:40 -6,4 C -6,4 C -6,2 C 75 % 1032,4 hPa 0,0 l/m 0,0 km/h (0 Bft) N 0 0 min 0,000 mm 0 W/m -10,1 C -6,4 C 0,0 km/h (0 Bft) 97 %
20.01.2017 21:50 -6,6 C -6,6 C -6,4 C 74 % 1032,4 hPa 0,0 l/m 0,0 km/h (0 Bft) N 0 0 min 0,000 mm 0 W/m -10,4 C -6,6 C 0,0 km/h (0 Bft) 98 %
20.01.2017 22:00 -6,7 C -6,7 C -6,6 C 74 % 1032,4 hPa 0,0 l/m 0,0 km/h (0 Bft) N 0 0 min 0,000 mm 0 W/m -10,5 C -6,7 C 0,0 km/h (0 Bft) 97 %
20.01.2017 22:10 -6,8 C -6,8 C -6,7 C 74 % 1032,4 hPa 0,0 l/m 0,0 km/h (0 Bft) N 0 0 min 0,000 mm 0 W/m -10,6 C -6,8 C 0,0 km/h (0 Bft) 98 %
20.01.2017 22:20 -6,9 C -6,9 C -6,8 C 75 % 1032,4 hPa 0,0 l/m 0,0 km/h (0 Bft) N 0 0 min 0,000 mm 0 W/m -10,6 C -6,9 C 0,0 km/h (0 Bft) 96 %
20.01.2017 22:30 -6,8 C -6,9 C -6,8 C 75 % 1032,4 hPa 0,0 l/m 0,0 km/h (0 Bft) NO 45 0 min 0,000 mm 0 W/m -10,5 C -6,8 C 6,4 km/h (2 Bft) 98 %
20.01.2017 22:40 -6,9 C -6,9 C -6,8 C 73 % 1032,4 hPa 0,0 l/m 0,0 km/h (0 Bft) NO 45 0 min 0,000 mm 0 W/m -10,9 C -6,9 C 1,6 km/h (1 Bft) 97 %
20.01.2017 22:50 -6,8 C -6,9 C -6,8 C 74 % 1032,4 hPa 0,0 l/m 0,0 km/h (0 Bft) NO 45 0 min 0,000 mm 0 W/m -10,6 C -6,8 C 3,2 km/h (1 Bft) 97 %
20.01.2017 23:00 -6,2 C -6,8 C -6,2 C 71 % 1032,4 hPa 0,0 l/m 0,0 km/h (0 Bft) O 90 0 min 0,000 mm 0 W/m -10,6 C -6,2 C 4,8 km/h (1 Bft) 98 %
20.01.2017 23:10 -6,5 C -6,5 C -6,2 C 72 % 1032,4 hPa 0,0 l/m 0,0 km/h (0 Bft) N 0 0 min 0,000 mm 0 W/m -10,7 C -6,5 C 0,0 km/h (0 Bft) 97 %
20.01.2017 23:20 -6,9 C -6,9 C -6,5 C 74 % 1032,3 hPa 0,0 l/m 0,0 km/h (0 Bft) N 0 0 min 0,000 mm 0 W/m -10,7 C -6,9 C 0,0 km/h (0 Bft) 98 %
20.01.2017 23:30 -6,8 C -6,9 C -6,8 C 73 % 1032,2 hPa 0,0 l/m 0,0 km/h (0 Bft) N 0 0 min 0,000 mm 0 W/m -10,8 C -6,8 C 0,0 km/h (0 Bft) 97 %
20.01.2017 23:40 -6,8 C -6,8 C -6,8 C 72 % 1032,2 hPa 0,0 l/m 0,0 km/h (0 Bft) N 0 0 min 0,000 mm 0 W/m -11,0 C -6,8 C 0,0 km/h (0 Bft) 97 %
20.01.2017 23:50 -6,9 C -6,9 C -6,8 C 72 % 1032,2 hPa 0,0 l/m 0,0 km/h (0 Bft) N 0 0 min 0,000 mm 0 W/m -11,1 C -6,9 C 0,0 km/h (0 Bft) 98 %
_ Min-Zeit 06:30 06:30 06:40 13:30 18:20 - 00:00 - - - - - 08:20 06:30 01:30 00:20
Minimum _ -9,1 C -9,1 C -9,1 C 51 % 1032,1 hPa - 0,0 km/h (0 Bft) - - - - - -12,2 C -9,1 C 0,0 km/h (0 Bft) 89 %
_ Max-Zeit 14:00 13:50 14:00 00:00 00:00 00:00 07:10 - - 10:40 13:00 12:20 14:30 13:40 10:40 01:20
Maximum _ -0,8 C -0,9 C -0,8 C 80 % 1034,9 hPa 0,0 l/m 4,8 km/h
NO (1 Bft)
- - 20 min 0,102 mm 369 W/m -8,8 C -0,9 C 14,5 km/h
N-NO (3 Bft)
100 %
Durchschnitt _ -5,4 C -5,5 C -5,3 C 68 % 1033,4 hPa #0,0 l/m 0,5 km/h (0 Bft) NO - #5:20 h #0,533 mm 187 W/m -10,6 C -5,4 C 2,7 km/h (1 Bft) 99 %
PRIVATE WETTERSTATION BILLIGHEIM-ALLFELD - www.neckar-odenwald-wetter.de - Holger Sonntag